Time;durP1;ratioP1;P1;durP2;ratioP2;P2;SDS_P1;SDS_P2;PMS_P1;PMS_P2;Temp;Humidity;BMP_temperature;BMP_pressure;BME280_temperature;BME280_humidity;BME280_pressure;Samples;Min_cycle;Max_cycle;Signal;HPM_P1;HPM_P2
2022/09/21 00:00:27;;;;;;;24.83;7.87;;;;;;;;;;5025801;28;20663;-63
2022/09/21 00:02:56;;;;;;;17.03;7.30;;;10.70;96.80;;;;;;5013961;28;20965;-64
2022/09/21 00:05:24;;;;;;;31.57;9.27;;;;;;;;;;5012540;28;20477;-63
2022/09/21 00:07:51;;;;;;;38.70;6.37;;;;;;;;;;5014400;28;20518;-63
2022/09/21 00:10:18;;;;;;;23.87;8.43;;;10.70;96.30;;;;;;5012339;28;20953;-63
2022/09/21 00:12:47;;;;;;;24.13;7.87;;;10.80;96.20;;;;;;5012961;28;20572;-63
2022/09/21 00:15:16;;;;;;;33.70;9.83;;;10.70;96.00;;;;;;5017602;28;20501;-64
2022/09/21 00:17:43;;;;;;;30.50;8.10;;;10.50;96.00;;;;;;5015869;28;20568;-64
2022/09/21 00:20:11;;;;;;;50.40;12.77;;;;;;;;;;5014808;28;21482;-64
2022/09/21 00:22:37;;;;;;;26.13;6.73;;;10.50;96.40;;;;;;5014887;28;20701;-63
2022/09/21 00:25:05;;;;;;;29.93;9.47;;;10.50;96.30;;;;;;5012977;28;20568;-64
2022/09/21 00:27:32;;;;;;;33.73;8.70;;;10.50;96.30;;;;;;5013639;28;20500;-63
2022/09/21 00:30:01;;;;;;;21.20;5.97;;;14.80;98.20;;;;;;5017588;28;20839;-64
2022/09/21 00:32:30;;;;;;;27.47;6.93;;;10.50;96.00;;;;;;5014106;28;20503;-63
2022/09/21 00:34:57;;;;;;;29.60;8.00;;;;;;;;;;5012160;28;21126;-63
2022/09/21 00:37:24;;;;;;;24.37;6.47;;;10.60;96.30;;;;;;5013576;28;20496;-63
2022/09/21 00:39:51;;;;;;;27.73;8.17;;;;;;;;;;4994671;28;20468;-63
2022/09/21 00:42:20;;;;;;;37.73;9.83;;;10.60;96.10;;;;;;5016809;28;21059;-63
2022/09/21 00:44:47;;;;;;;27.47;6.53;;;10.60;96.00;;;;;;5009923;28;20962;-62
2022/09/21 00:47:19;;;;;;;38.63;11.03;;;10.60;96.00;;;;;;5011103;28;20492;-64
2022/09/21 00:49:49;;;;;;;21.47;6.70;;;10.60;95.80;;;;;;4999312;28;20488;-62
2022/09/21 00:52:18;;;;;;;80.23;13.30;;;10.50;95.90;;;;;;5021846;28;20542;-64
2022/09/21 00:54:47;;;;;;;75.57;10.30;;;;;;;;;;5012796;28;20492;-62
2022/09/21 00:57:15;;;;;;;156.97;16.40;;;;;;;;;;5008758;28;20890;-63
2022/09/21 00:59:43;;;;;;;77.63;9.27;;;;;;;;;;5009273;28;20713;-61
2022/09/21 01:02:10;;;;;;;162.43;16.90;;;;;;;;;;5010423;28;20554;-63
2022/09/21 01:04:39;;;;;;;83.97;9.70;;;;;;;;;;5011524;28;22422;-63
2022/09/21 01:07:11;;;;;;;86.03;11.43;;;10.40;95.50;;;;;;4998236;28;20484;-64
2022/09/21 01:09:38;;;;;;;84.87;11.53;;;;;;;;;;5026490;28;20507;-63
2022/09/21 01:12:11;;;;;;;37.23;10.57;;;;;;;;;;5012250;28;20512;-61
2022/09/21 01:14:53;;;;;;;14.83;5.23;;;;;;;;;;5017571;28;20568;-63
2022/09/21 01:17:30;;;;;;;28.17;7.53;;;10.20;95.80;;;;;;5012403;28;20485;-64
2022/09/21 01:20:29;;;;;;;15.33;6.53;;;10.10;95.80;;;;;;5010753;28;20473;-63
2022/09/21 01:23:12;;;;;;;22.27;6.67;;;10.10;95.90;;;;;;4998949;28;20527;-63
2022/09/21 01:25:46;;;;;;;21.70;5.93;;;10.20;95.80;;;;;;5006616;28;20768;-64
2022/09/21 01:28:28;;;;;;;36.67;11.80;;;10.20;95.80;;;;;;5011998;28;20890;-63
2022/09/21 01:31:04;;;;;;;18.67;5.80;;;12.20;96.70;;;;;;5013468;28;20488;-64
2022/09/21 01:33:35;;;;;;;22.13;7.30;;;;;;;;;;5014634;28;20465;-64
2022/09/21 01:36:04;;;;;;;9.73;4.47;;;;;;;;;;4996528;28;20498;-63
2022/09/21 01:38:34;;;;;;;12.40;5.93;;;;;;;;;;4995130;28;20860;-64
2022/09/21 01:41:03;;;;;;;15.83;6.67;;;10.20;95.70;;;;;;5002155;28;20866;-64
2022/09/21 01:43:35;;;;;;;19.70;5.13;;;10.20;95.80;;;;;;5014708;28;20998;-64
2022/09/21 01:46:04;;;;;;;14.20;6.50;;;;;;;;;;5002371;28;20473;-64
2022/09/21 01:48:36;;;;;;;11.10;5.97;;;10.10;96.00;;;;;;5015437;28;20497;-63
2022/09/21 01:51:07;;;;;;;20.03;8.57;;;10.10;96.00;;;;;;5014087;28;20489;-65
2022/09/21 01:53:37;;;;;;;20.50;8.07;;;10.10;96.30;;;;;;5003678;28;20480;-63
2022/09/21 01:56:07;;;;;;;23.63;8.27;;;;;;;;;;5016216;28;20482;-64
2022/09/21 01:58:39;;;;;;;19.33;8.60;;;10.10;96.60;;;;;;5003356;28;20473;-63
2022/09/21 02:01:10;;;;;;;25.33;10.50;;;11.90;97.50;;;;;;5002104;28;20481;-63
2022/09/21 02:03:41;;;;;;;27.20;8.87;;;10.10;96.40;;;;;;5003224;28;20473;-62
2022/09/21 02:06:09;;;;;;;34.57;13.03;;;10.10;96.30;;;;;;5013926;28;20637;-63
2022/09/21 02:08:37;;;;;;;31.83;7.20;;;10.10;96.10;;;;;;5006941;28;20560;-62
2022/09/21 02:11:05;;;;;;;18.93;7.70;;;10.10;96.00;;;;;;5013782;28;20594;-62
2022/09/21 02:13:35;;;;;;;16.80;6.47;;;10.10;96.10;;;;;;5013507;28;20488;-62
2022/09/21 02:16:14;;;;;;;24.37;8.17;;;;;;;;;;5011756;28;20834;-63
2022/09/21 02:18:53;;;;;;;35.93;13.37;;;10.10;95.90;;;;;;5012388;28;20534;-63
2022/09/21 02:21:26;;;;;;;40.63;9.70;;;10.10;95.80;;;;;;5013527;28;20495;-64
2022/09/21 02:24:01;;;;;;;24.33;7.97;;;10.10;95.70;;;;;;5015564;28;20477;-63
2022/09/21 02:26:33;;;;;;;33.27;8.87;;;10.00;95.70;;;;;;5013621;28;20481;-63
2022/09/21 02:29:10;;;;;;;33.93;8.70;;;9.90;96.10;;;;;;5012255;28;20484;-62
2022/09/21 02:31:44;;;;;;;24.67;7.83;;;9.80;96.40;;;;;;5014293;28;20476;-62
2022/09/21 02:34:17;;;;;;;37.00;11.93;;;;;;;;;;4997189;28;20982;-63
2022/09/21 02:36:47;;;;;;;23.87;8.60;;;9.40;97.00;;;;;;5015671;28;20551;-62
2022/09/21 02:39:17;;;;;;;43.53;15.13;;;;;;;;;;5006619;28;20874;-62
2022/09/21 02:41:51;;;;;;;26.50;7.07;;;;;;;;;;5013677;28;20994;-63
2022/09/21 02:44:22;;;;;;;43.60;10.37;;;;;;;;;;5014776;28;21258;-63
2022/09/21 02:46:54;;;;;;;17.17;6.47;;;9.40;97.40;;;;;;5015009;28;20480;-63
2022/09/21 02:49:25;;;;;;;23.37;8.20;;;;;;;;;;5010586;28;20492;-63
2022/09/21 02:51:54;;;;;;;16.43;6.20;;;;;;;;;;5015167;28;20790;-63
2022/09/21 02:54:25;;;;;;;22.80;8.30;;;9.50;97.30;;;;;;5009117;28;20481;-63
2022/09/21 02:56:53;;;;;;;18.77;6.60;;;9.60;97.40;;;;;;5004361;28;20977;-62
2022/09/21 02:59:20;;;;;;;28.33;9.00;;;9.60;97.30;;;;;;5009098;28;20493;-61
2022/09/21 03:01:47;;;;;;;30.80;6.90;;;;;;;;;;5013572;28;20880;-62
2022/09/21 03:04:16;;;;;;;37.07;10.03;;;9.50;97.40;;;;;;5013491;28;20473;-61
2022/09/21 03:06:43;;;;;;;37.57;9.67;;;9.60;97.60;;;;;;5014769;28;20662;-62
2022/09/21 03:09:10;;;;;;;60.30;14.33;;;9.60;97.60;;;;;;5011682;28;20898;-63
2022/09/21 03:11:37;;;;;;;21.80;6.60;;;;;;;;;;5018519;28;21143;-63
2022/09/21 03:14:07;;;;;;;22.57;7.93;;;9.60;97.20;;;;;;4998529;28;20493;-63
2022/09/21 03:16:34;;;;;;;26.03;7.43;;;;;;;;;;5025787;28;20492;-63
2022/09/21 03:19:01;;;;;;;21.07;5.63;;;;;;;;;;5006746;28;20496;-63
2022/09/21 03:21:29;;;;;;;25.97;7.13;;;9.70;97.50;;;;;;5019767;28;20824;-62
2022/09/21 03:23:56;;;;;;;22.03;7.30;;;9.60;97.30;;;;;;5014314;28;20481;-62
2022/09/21 03:26:23;;;;;;;24.23;6.70;;;9.60;97.30;;;;;;5014225;28;20485;-62
2022/09/21 03:28:49;;;;;;;20.40;7.83;;;9.60;97.30;;;;;;5012145;28;20827;-63
2022/09/21 03:31:17;;;;;;;36.20;11.60;;;;;;;;;;5010327;28;21102;-63
2022/09/21 03:33:43;;;;;;;28.27;6.80;;;13.00;98.40;;;;;;5010283;28;20981;-62
2022/09/21 03:36:10;;;;;;;45.23;11.67;;;9.60;97.20;;;;;;5012640;28;20880;-62
2022/09/21 03:38:38;;;;;;;27.83;7.00;;;9.40;97.10;;;;;;5013081;28;20481;-61
2022/09/21 03:41:06;;;;;;;22.27;6.33;;;9.40;97.10;;;;;;5011096;28;20477;-62
2022/09/21 03:43:32;;;;;;;28.80;7.93;;;9.40;96.80;;;;;;5012919;28;20482;-62
2022/09/21 03:45:59;;;;;;;17.63;5.97;;;9.30;97.10;;;;;;5013657;28;20572;-62
2022/09/21 03:48:26;;;;;;;28.10;6.07;;;9.30;97.00;;;;;;5010326;28;20489;-63
2022/09/21 03:50:53;;;;;;;37.93;8.43;;;;;;;;;;5012337;28;20891;-62
2022/09/21 03:53:20;;;;;;;43.67;9.93;;;9.30;96.80;;;;;;5012541;28;20481;-62
2022/09/21 03:55:48;;;;;;;26.30;7.03;;;9.20;96.70;;;;;;5011837;28;20516;-62
2022/09/21 03:58:15;;;;;;;46.90;12.93;;;9.20;96.50;;;;;;4997834;28;20480;-63
2022/09/21 04:00:42;;;;;;;24.50;7.73;;;;;;;;;;5010779;28;20477;-62
2022/09/21 04:03:09;;;;;;;35.33;10.10;;;9.10;96.40;;;;;;5010633;28;21044;-62
2022/09/21 04:05:35;;;;;;;20.07;7.50;;;9.10;96.30;;;;;;5012462;28;20843;-62
2022/09/21 04:08:02;;;;;;;31.73;8.63;;;9.10;96.20;;;;;;5009714;28;20842;-63
2022/09/21 04:10:32;;;;;;;19.43;5.93;;;9.10;96.20;;;;;;5011312;28;20478;-62
2022/09/21 04:13:01;;;;;;;31.63;7.83;;;9.10;96.10;;;;;;5013780;28;20479;-63
2022/09/21 04:15:29;;;;;;;24.93;7.30;;;9.00;96.40;;;;;;5013462;28;20511;-63
2022/09/21 04:17:56;;;;;;;24.00;8.23;;;9.00;96.20;;;;;;5011585;28;21093;-63
2022/09/21 04:20:23;;;;;;;24.67;8.77;;;9.00;96.10;;;;;;5010794;28;20497;-62
2022/09/21 04:22:51;;;;;;;22.77;7.10;;;;;;;;;;5005737;28;20587;-62
2022/09/21 04:25:18;;;;;;;21.30;6.27;;;9.00;96.10;;;;;;5025190;28;20485;-62
2022/09/21 04:27:44;;;;;;;35.37;10.07;;;9.00;96.00;;;;;;5009926;28;20867;-62
2022/09/21 04:30:14;;;;;;;42.67;11.93;;;9.00;96.00;;;;;;5007004;28;20485;-62
2022/09/21 04:32:41;;;;;;;22.00;5.73;;;8.90;96.10;;;;;;5013143;28;20533;-64
2022/09/21 04:35:09;;;;;;;39.27;11.63;;;8.90;96.10;;;;;;5012108;28;20473;-63
2022/09/21 04:37:36;;;;;;;36.90;9.57;;;8.90;96.40;;;;;;5008798;28;20487;-63
2022/09/21 04:40:03;;;;;;;37.17;10.90;;;7.20;95.80;;;;;;5012489;28;20520;-62
2022/09/21 04:42:30;;;;;;;27.40;6.90;;;8.80;96.50;;;;;;5016451;28;20903;-64
2022/09/21 04:44:57;;;;;;;32.70;7.47;;;;;;;;;;5015878;28;20485;-63
2022/09/21 04:47:25;;;;;;;20.90;7.07;;;8.90;96.30;;;;;;5015775;28;20518;-62
2022/09/21 04:49:52;;;;;;;24.47;7.43;;;;;;;;;;5013123;28;20484;-62
2022/09/21 04:52:19;;;;;;;28.33;7.80;;;8.80;96.20;;;;;;5010793;28;20484;-63
2022/09/21 04:54:46;;;;;;;25.50;6.77;;;8.70;96.10;;;;;;5012162;28;20489;-62
2022/09/21 04:57:13;;;;;;;44.73;11.13;;;8.80;96.10;;;;;;5022479;28;20472;-62
2022/09/21 04:59:40;;;;;;;35.37;7.67;;;8.80;95.90;;;;;;5022338;28;20508;-62
2022/09/21 05:02:07;;;;;;;49.47;12.60;;;;;;;;;;5029735;28;20481;-62
2022/09/21 05:04:35;;;;;;;34.53;8.00;;;8.80;96.30;;;;;;5024160;28;20491;-62
2022/09/21 05:07:03;;;;;;;27.20;6.93;;;;;;;;;;5021865;28;20488;-64
2022/09/21 05:12:14;;;;;;;64.97;14.03;;;8.60;96.50;;;;;;5023674;28;20468;-63
2022/09/21 05:14:42;;;;;;;30.67;7.50;;;;;;;;;;5031230;28;20514;-62
2022/09/21 05:17:09;;;;;;;34.03;9.13;;;;;;;;;;5020393;28;20473;-61
2022/09/21 05:19:38;;;;;;;35.13;8.30;;;8.50;96.50;;;;;;5015135;28;20481;-62
2022/09/21 05:22:05;;;;;;;32.77;9.00;;;;;;;;;;5014323;28;20845;-61
2022/09/21 05:24:32;;;;;;;22.70;6.50;;;;;;;;;;5016226;28;20871;-61
2022/09/21 05:26:59;;;;;;;25.47;7.87;;;;;;;;;;5016070;28;20686;-62
2022/09/21 05:29:26;;;;;;;42.73;10.33;;;8.50;96.50;;;;;;5012606;28;20493;-62
2022/09/21 05:31:58;;;;;;;34.87;8.53;;;8.40;96.20;;;;;;5015064;28;21008;-62
2022/09/21 05:34:36;;;;;;;29.23;7.07;;;8.50;96.00;;;;;;5017572;28;20934;-61
2022/09/21 05:37:09;;;;;;;46.97;10.77;;;8.50;96.00;;;;;;5017839;28;20481;-62
2022/09/21 05:39:36;;;;;;;55.53;10.00;;;8.50;95.90;;;;;;5006774;28;20861;-62
2022/09/21 05:42:04;;;;;;;62.13;14.60;;;8.50;96.20;;;;;;5016978;28;20477;-63
2022/09/21 05:44:31;;;;;;;48.90;9.43;;;;;;;;;;5015969;28;20844;-62
2022/09/21 05:47:02;;;;;;;48.23;7.90;;;;;;;;;;5015518;28;20497;-62
2022/09/21 05:49:33;;;;;;;86.90;11.57;;;;;;;;;;5012571;28;21036;-63
2022/09/21 05:52:04;;;;;;;136.17;12.63;;;;;;;;;;5012889;28;20485;-63
2022/09/21 05:54:45;;;;;;;25.83;6.83;;;8.70;96.50;;;;;;5016095;28;20473;-62
2022/09/21 05:57:19;;;;;;;56.27;12.20;;;8.70;96.70;;;;;;5012833;28;21558;-62
2022/09/21 05:59:51;;;;;;;32.77;7.03;;;;;;;;;;5012917;28;20997;-62
2022/09/21 06:02:28;;;;;;;48.03;11.70;;;8.80;96.90;;;;;;5018003;28;20575;-62
2022/09/21 06:04:57;;;;;;;24.47;7.07;;;12.10;98.00;;;;;;5007413;28;20558;-62
2022/09/21 06:07:24;;;;;;;25.87;6.40;;;8.90;97.10;;;;;;5016760;28;20611;-63
2022/09/21 06:09:52;;;;;;;29.87;8.07;;;9.00;97.00;;;;;;5007062;28;21058;-61
2022/09/21 06:12:19;;;;;;;24.53;6.20;;;9.00;97.10;;;;;;5019429;28;20838;-63
2022/09/21 06:14:46;;;;;;;21.80;7.97;;;9.10;97.10;;;;;;5018837;28;20481;-61
2022/09/21 06:17:12;;;;;;;31.47;10.80;;;9.20;97.00;;;;;;5019054;28;20477;-62
2022/09/21 06:19:39;;;;;;;21.60;5.80;;;9.20;97.00;;;;;;5015949;28;21227;-62
2022/09/21 06:22:06;;;;;;;25.83;9.20;;;9.30;97.10;;;;;;5018843;28;20481;-62
2022/09/21 06:24:32;;;;;;;17.47;6.63;;;9.40;97.10;;;;;;5015527;28;20496;-62
2022/09/21 06:27:00;;;;;;;21.07;5.67;;;9.50;97.10;;;;;;5014607;28;20547;-62
2022/09/21 06:29:27;;;;;;;19.93;6.47;;;9.70;97.10;;;;;;5012626;28;20990;-62
2022/09/21 06:31:54;;;;;;;17.53;6.43;;;9.80;97.00;;;;;;5015593;28;20850;-62
2022/09/21 06:34:20;;;;;;;18.27;5.83;;;10.10;96.90;;;;;;5019946;28;20477;-63
2022/09/21 06:36:47;;;;;;;16.60;7.50;;;10.40;96.90;;;;;;5014974;28;20489;-63
2022/09/21 06:39:14;;;;;;;44.47;15.53;;;10.70;96.60;;;;;;5013542;28;20757;-63
2022/09/21 06:41:40;;;;;;;17.77;5.80;;;10.80;96.10;;;;;;5015079;28;20481;-63
2022/09/21 06:44:08;;;;;;;37.23;12.70;;;8.90;95.60;;;;;;5013299;28;20873;-63
2022/09/21 06:46:35;;;;;;;15.60;6.93;;;11.30;96.00;;;;;;5015985;28;20754;-63
2022/09/21 06:49:02;;;;;;;23.93;8.90;;;13.10;97.00;;;;;;5011645;28;20723;-64
2022/09/21 06:51:28;;;;;;;13.73;7.00;;;12.00;96.50;;;;;;5010650;28;20846;-64
2022/09/21 06:53:56;;;;;;;17.20;7.30;;;11.00;95.80;;;;;;5014945;28;20844;-64
2022/09/21 06:56:22;;;;;;;18.80;6.30;;;13.20;95.60;;;;;;5015810;28;20485;-64
2022/09/21 06:58:49;;;;;;;18.37;7.43;;;13.70;95.00;;;;;;5012891;28;20492;-63
2022/09/21 07:01:17;;;;;;;18.43;8.90;;;14.10;93.60;;;;;;5012747;28;20493;-63
2022/09/21 07:03:44;;;;;;;17.63;7.13;;;14.50;93.60;;;;;;5013821;28;20489;-63
2022/09/21 07:06:13;;;;;;;22.60;12.03;;;14.80;92.70;;;;;;5012789;28;20535;-64
2022/09/21 07:08:41;;;;;;;22.63;10.60;;;15.30;92.10;;;;;;5007236;28;20660;-64
2022/09/21 07:11:08;;;;;;;28.10;10.20;;;15.60;91.60;;;;;;4997302;28;20628;-64
2022/09/21 07:13:35;;;;;;;23.77;12.50;;;15.70;90.80;;;;;;5010241;28;21161;-64
2022/09/21 07:16:04;;;;;;;22.80;12.20;;;16.00;91.70;;;;;;5019092;28;20508;-63
2022/09/21 07:18:33;;;;;;;18.37;9.80;;;16.40;90.70;;;;;;5016342;28;20658;-64
2022/09/21 07:21:03;;;;;;;15.63;8.70;;;17.00;90.60;;;;;;5019471;28;20480;-64
2022/09/21 07:23:30;;;;;;;21.53;8.07;;;17.60;89.30;;;;;;5023479;28;20569;-64
2022/09/21 07:26:02;;;;;;;16.13;10.40;;;18.20;87.80;;;;;;5019076;28;20782;-64
2022/09/21 07:28:29;;;;;;;15.20;9.50;;;18.60;86.90;;;;;;5016548;28;20472;-63
2022/09/21 07:30:56;;;;;;;13.10;8.10;;;19.00;85.50;;;;;;5018098;28;20898;-64
2022/09/21 07:33:23;;;;;;;8.90;7.50;;;19.20;88.00;;;;;;5022923;28;20476;-63
2022/09/21 07:35:55;;;;;;;14.13;8.90;;;;;;;;;;5020834;28;20480;-64
2022/09/21 07:38:23;;;;;;;16.33;7.33;;;19.60;85.00;;;;;;5020209;28;20816;-64
2022/09/21 07:40:49;;;;;;;13.67;8.80;;;19.70;85.30;;;;;;5017200;28;20473;-64
2022/09/21 07:43:16;;;;;;;19.43;9.17;;;22.90;88.70;;;;;;5015963;28;20492;-63
2022/09/21 07:45:43;;;;;;;27.20;8.17;;;20.00;85.70;;;;;;5017796;28;20493;-64
2022/09/21 07:48:10;;;;;;;20.83;12.37;;;19.80;84.80;;;;;;5015156;28;20480;-64
2022/09/21 07:50:37;;;;;;;17.93;8.70;;;19.80;85.40;;;;;;5018494;28;20490;-64
2022/09/21 07:53:05;;;;;;;27.77;9.57;;;19.70;86.10;;;;;;5023295;28;20577;-64
2022/09/21 07:55:32;;;;;;;11.20;8.70;;;19.50;86.00;;;;;;5008665;28;20883;-64
2022/09/21 08:00:42;;;;;;;13.87;9.40;;;19.40;87.20;;;;;;5017002;28;20475;-63
2022/09/21 08:03:09;;;;;;;19.93;11.30;;;19.30;87.50;;;;;;5021341;28;20844;-64
2022/09/21 08:05:36;;;;;;;22.10;7.90;;;19.30;88.60;;;;;;5022378;28;20741;-64
2022/09/21 08:08:02;;;;;;;15.17;11.10;;;19.30;88.50;;;;;;5019593;28;20472;-63
2022/09/21 08:10:31;;;;;;;16.47;9.60;;;19.20;88.60;;;;;;5020538;28;20479;-63
2022/09/21 08:12:58;;;;;;;22.07;8.60;;;19.30;88.90;;;;;;5014998;28;20481;-63
2022/09/21 08:15:26;;;;;;;16.97;8.57;;;19.30;90.40;;;;;;5013443;28;20491;-63
2022/09/21 08:17:52;;;;;;;14.50;9.00;;;19.30;90.20;;;;;;5027569;28;20483;-63
2022/09/21 08:20:20;;;;;;;25.50;8.97;;;19.30;90.20;;;;;;5016466;28;20472;-64
2022/09/21 08:22:47;;;;;;;17.27;8.27;;;;;;;;;;5026445;28;20520;-64
2022/09/21 08:25:14;;;;;;;21.07;9.83;;;19.30;90.40;;;;;;5028940;28;20489;-63
2022/09/21 08:27:42;;;;;;;26.17;8.50;;;19.30;90.60;;;;;;5026011;28;20898;-63
2022/09/21 08:30:12;;;;;;;15.10;8.70;;;19.30;90.00;;;;;;5024784;28;20482;-64
2022/09/21 08:32:39;;;;;;;16.73;8.53;;;19.30;90.20;;;;;;5023188;28;20495;-63
2022/09/21 08:35:07;;;;;;;23.93;10.40;;;;;;;;;;5025826;28;21051;-63
2022/09/21 08:37:35;;;;;;;25.13;10.60;;;19.30;89.90;;;;;;5021907;28;20487;-64
2022/09/21 08:40:02;;;;;;;13.83;7.67;;;19.20;88.30;;;;;;5007458;28;20817;-63
2022/09/21 08:42:39;;;;;;;17.43;7.13;;;19.20;88.60;;;;;;5024221;28;20723;-63
2022/09/21 08:45:14;;;;;;;23.13;10.37;;;19.20;89.50;;;;;;5012837;28;20991;-62
2022/09/21 08:47:44;;;;;;;26.10;7.00;;;19.20;89.30;;;;;;5025525;28;20526;-64
2022/09/21 08:50:26;;;;;;;28.87;10.20;;;19.10;86.60;;;;;;5017047;28;20480;-64
2022/09/21 08:52:54;;;;;;;15.33;6.77;;;;;;;;;;5022493;28;20820;-63
2022/09/21 08:55:23;;;;;;;12.60;6.90;;;19.20;89.10;;;;;;5016316;28;21327;-63
2022/09/21 08:57:49;;;;;;;11.70;7.97;;;19.20;87.90;;;;;;5019922;28;20484;-63
2022/09/21 09:00:19;;;;;;;23.03;7.33;;;19.30;86.90;;;;;;5021832;28;20867;-63
2022/09/21 09:03:18;;;;;;;19.03;7.43;;;19.40;88.60;;;;;;5024371;28;20484;-63
2022/09/21 09:05:52;;;;;;;17.43;7.37;;;19.60;89.80;;;;;;5015162;28;20476;-63
2022/09/21 09:08:35;;;;;;;17.20;9.60;;;19.80;89.30;;;;;;5022506;28;20477;-63
2022/09/21 09:11:15;;;;;;;11.73;7.77;;;19.90;86.80;;;;;;5021291;28;20483;-63
2022/09/21 09:13:51;;;;;;;16.00;6.87;;;;;;;;;;5028486;28;20472;-63
2022/09/21 09:16:25;;;;;;;19.23;8.40;;;20.00;87.40;;;;;;5023996;28;20567;-63
2022/09/21 09:18:54;;;;;;;10.80;6.13;;;20.00;88.30;;;;;;5022751;28;20492;-63
2022/09/21 09:21:27;;;;;;;17.80;6.23;;;20.20;87.50;;;;;;5023716;28;20484;-63
2022/09/21 09:24:00;;;;;;;11.97;7.63;;;20.30;87.40;;;;;;5027973;28;20551;-64
2022/09/21 09:26:34;;;;;;;30.17;7.77;;;20.40;84.30;;;;;;5004063;28;20981;-63
2022/09/21 09:29:03;;;;;;;20.50;9.50;;;20.50;86.60;;;;;;5028990;28;20488;-63
2022/09/21 09:31:32;;;;;;;11.47;6.60;;;;;;;;;;5019859;28;20738;-63
2022/09/21 09:34:08;;;;;;;14.20;7.73;;;20.50;85.30;;;;;;5012995;28;21242;-63
2022/09/21 09:36:37;;;;;;;10.63;5.90;;;20.50;85.30;;;;;;5024933;28;21500;-63
2022/09/21 09:39:09;;;;;;;21.73;7.63;;;20.70;85.50;;;;;;5022260;28;20725;-63
2022/09/21 09:41:50;;;;;;;12.70;6.37;;;20.70;85.10;;;;;;5023590;28;20527;-63
2022/09/21 09:44:52;;;;;;;16.60;8.10;;;20.90;83.90;;;;;;5015864;28;20530;-63
2022/09/21 09:47:32;;;;;;;16.63;8.40;;;21.10;85.90;;;;;;5024672;28;20467;-63
2022/09/21 09:50:05;;;;;;;9.00;6.70;;;21.30;84.80;;;;;;5023847;28;20551;-64
2022/09/21 09:52:33;;;;;;;12.43;6.00;;;21.60;83.80;;;;;;5025464;28;20863;-63
2022/09/21 09:55:01;;;;;;;10.50;6.07;;;20.80;76.60;;;;;;5014998;28;21141;-63
2022/09/21 09:57:31;;;;;;;17.97;5.47;;;20.10;79.80;;;;;;5028376;28;20523;-63
2022/09/21 10:00:02;;;;;;;12.93;5.27;;;20.30;78.80;;;;;;5017867;28;21055;-62
2022/09/21 10:02:30;;;;;;;13.90;5.33;;;20.30;82.30;;;;;;5030477;28;20839;-62
2022/09/21 10:05:02;;;;;;;9.87;5.43;;;20.50;82.20;;;;;;5036683;28;20468;-62
2022/09/21 10:07:37;;;;;;;22.10;7.60;;;20.70;79.50;;;;;;5025711;28;20511;-62
2022/09/21 10:10:21;;;;;;;16.87;7.20;;;20.90;78.40;;;;;;5019798;28;20468;-61
2022/09/21 10:12:48;;;;;;;16.60;4.63;;;21.00;77.20;;;;;;5025383;28;20488;-62
2022/09/21 10:15:17;;;;;;;16.77;7.53;;;21.00;79.20;;;;;;5024465;28;21186;-62
2022/09/21 10:17:47;;;;;;;18.13;6.90;;;;;;;;;;5022453;28;20488;-62
2022/09/21 10:20:19;;;;;;;25.53;8.20;;;21.40;79.20;;;;;;5014545;28;20473;-61
2022/09/21 10:22:47;;;;;;;22.20;5.97;;;;;;;;;;5025250;28;20480;-62
2022/09/21 10:25:16;;;;;;;19.23;7.13;;;21.80;76.90;;;;;;5025290;28;21165;-62
2022/09/21 10:27:44;;;;;;;12.40;5.70;;;;;;;;;;5014318;28;20808;-62
2022/09/21 10:30:31;;;;;;;11.70;8.33;;;;;;;;;;5023316;28;20972;-63
2022/09/21 10:33:00;;;;;;;8.20;4.47;;;21.80;77.10;;;;;;5024973;28;20961;-62
2022/09/21 10:35:27;;;;;;;7.10;5.40;;;;;;;;;;5025582;28;20480;-64
2022/09/21 10:38:10;;;;;;;15.53;5.97;;;21.70;76.00;;;;;;5021527;28;20541;-64
2022/09/21 10:40:38;;;;;;;7.57;5.93;;;21.60;77.90;;;;;;5024887;28;21006;-64
2022/09/21 10:43:05;;;;;;;5.07;3.13;;;21.40;76.20;;;;;;5025438;28;20693;-64
2022/09/21 10:45:35;;;;;;;6.10;4.67;;;21.50;76.60;;;;;;5026634;28;20644;-64
2022/09/21 10:48:13;;;;;;;6.57;4.20;;;21.50;78.90;;;;;;5024054;28;20556;-63
2022/09/21 10:50:41;;;;;;;9.10;6.10;;;21.80;80.30;;;;;;5023213;28;20472;-64
2022/09/21 10:53:19;;;;;;;12.97;7.23;;;21.70;74.90;;;;;;5026865;28;21020;-64
2022/09/21 10:55:51;;;;;;;13.10;4.67;;;21.60;73.20;;;;;;5013593;28;20890;-64
2022/09/21 10:58:18;;;;;;;15.73;7.13;;;21.40;74.00;;;;;;5014147;28;20539;-64
2022/09/21 11:00:50;;;;;;;14.27;5.30;;;21.40;75.40;;;;;;5025048;28;20489;-64
2022/09/21 11:03:45;;;;;;;17.63;7.63;;;21.30;75.10;;;;;;5024182;28;20593;-64
2022/09/21 11:06:16;;;;;;;30.87;6.73;;;21.30;73.90;;;;;;5027575;28;20993;-64
2022/09/21 11:08:49;;;;;;;9.40;5.80;;;21.40;77.90;;;;;;5013889;28;20477;-64
2022/09/21 11:11:46;;;;;;;18.50;6.87;;;21.50;72.90;;;;;;5017501;28;20801;-64
2022/09/21 11:14:17;;;;;;;14.80;7.23;;;;;;;;;;5007647;28;20461;-64
2022/09/21 11:16:51;;;;;;;23.40;5.80;;;22.00;77.90;;;;;;5018428;28;20490;-64
2022/09/21 11:19:26;;;;;;;12.57;7.07;;;22.10;74.00;;;;;;5017233;28;21009;-64
2022/09/21 11:21:57;;;;;;;8.97;4.40;;;22.10;72.50;;;;;;5022903;28;20475;-64
2022/09/21 11:24:32;;;;;;;10.00;4.83;;;21.70;70.30;;;;;;5024617;28;20836;-64
2022/09/21 11:27:04;;;;;;;7.70;4.50;;;21.40;70.00;;;;;;5027082;28;20582;-64
2022/09/21 11:29:35;;;;;;;9.73;4.87;;;20.90;70.90;;;;;;5025083;28;21019;-64
2022/09/21 11:32:21;;;;;;;12.97;5.23;;;20.50;72.40;;;;;;5022474;28;20496;-64
2022/09/21 11:35:23;;;;;;;8.10;4.63;;;20.20;72.40;;;;;;4999426;28;20495;-63
2022/09/21 11:37:57;;;;;;;16.83;5.67;;;20.00;73.10;;;;;;4997014;28;21026;-63
2022/09/21 11:40:33;;;;;;;10.13;5.20;;;19.90;72.50;;;;;;5010299;28;21254;-63
2022/09/21 11:43:11;;;;;;;8.20;4.00;;;19.80;71.80;;;;;;5019377;28;20488;-63
2022/09/21 11:45:48;;;;;;;10.40;4.87;;;;;;;;;;5023099;28;20475;-62
2022/09/21 11:48:24;;;;;;;20.40;6.90;;;19.80;73.40;;;;;;5023981;28;20484;-63
2022/09/21 11:51:05;;;;;;;14.63;7.20;;;20.00;75.80;;;;;;5010816;28;20472;-63
2022/09/21 11:53:42;;;;;;;16.20;5.00;;;20.20;73.80;;;;;;5011563;28;20480;-63
2022/09/21 11:56:30;;;;;;;15.03;6.67;;;21.30;75.70;;;;;;5022749;28;21012;-63
2022/09/21 11:59:10;;;;;;;10.50;4.50;;;20.30;74.10;;;;;;5019206;28;20478;-63
2022/09/21 12:01:52;;;;;;;8.13;4.50;;;20.30;73.20;;;;;;5024633;28;20495;-63
2022/09/21 12:04:33;;;;;;;12.90;5.80;;;20.30;74.20;;;;;;5024860;28;21201;-63
2022/09/21 12:07:20;;;;;;;16.43;4.47;;;20.10;73.00;;;;;;5015737;28;20468;-63
2022/09/21 12:10:14;;;;;;;14.60;5.83;;;20.30;73.40;;;;;;5021241;28;20505;-64
2022/09/21 12:12:44;;;;;;;21.37;5.30;;;;;;;;;;5021868;28;20476;-64
2022/09/21 12:15:14;;;;;;;27.43;8.17;;;;;;;;;;5022078;28;20539;-63
2022/09/21 12:17:48;;;;;;;16.10;3.90;;;;;;;;;;5021007;28;20488;-63
2022/09/21 12:20:20;;;;;;;27.53;10.10;;;20.10;72.60;;;;;;5029635;28;20523;-63
2022/09/21 12:22:57;;;;;;;31.53;5.73;;;20.20;72.70;;;;;;5049474;28;20460;-62
2022/09/21 12:25:28;;;;;;;17.60;6.20;;;20.50;72.10;;;;;;5035052;28;20468;-63
2022/09/21 12:28:02;;;;;;;20.63;6.67;;;20.70;72.40;;;;;;5011166;28;20472;-62
2022/09/21 12:30:31;;;;;;;17.83;5.33;;;20.90;70.10;;;;;;5014667;28;20469;-63
2022/09/21 12:33:03;;;;;;;22.00;6.10;;;21.00;69.60;;;;;;5024022;28;20502;-63
2022/09/21 12:35:35;;;;;;;23.30;5.53;;;21.20;70.20;;;;;;5025340;28;21061;-63
2022/09/21 12:38:09;;;;;;;20.37;6.00;;;21.40;70.50;;;;;;5022034;28;20488;-63
2022/09/21 12:40:42;;;;;;;21.23;6.03;;;21.40;68.40;;;;;;5021012;28;20488;-63
2022/09/21 12:43:20;;;;;;;13.27;4.97;;;21.40;67.10;;;;;;5023540;28;20528;-63
2022/09/21 12:45:53;;;;;;;26.17;7.00;;;21.40;68.90;;;;;;5023423;28;21077;-64
2022/09/21 12:48:29;;;;;;;25.43;7.93;;;21.60;70.30;;;;;;5021268;28;20554;-63
2022/09/21 12:50:58;;;;;;;24.43;6.90;;;;;;;;;;5010806;28;20476;-64
2022/09/21 12:53:27;;;;;;;10.03;2.03;;;;;;;;;;5006805;28;20842;-64
2022/09/21 12:56:01;;;;;;;7.47;3.60;;;22.10;69.20;;;;;;5033822;28;20635;-64
2022/09/21 12:58:43;;;;;;;12.00;2.80;;;22.10;65.20;;;;;;5012681;28;20443;-63
2022/09/21 13:01:19;;;;;;;7.93;1.60;;;22.20;64.70;;;;;;5022943;28;20484;-64
2022/09/21 13:03:54;;;;;;;3.33;2.70;;;22.30;65.20;;;;;;5026964;28;20484;-63
2022/09/21 13:06:49;;;;;;;9.90;4.30;;;22.30;65.60;;;;;;5028212;28;20922;-64
2022/09/21 13:09:20;;;;;;;6.73;4.17;;;22.30;64.30;;;;;;5023342;28;20519;-63
2022/09/21 13:11:53;;;;;;;5.47;2.50;;;;;;;;;;5029651;28;20503;-64
2022/09/21 13:14:20;;;;;;;14.10;3.83;;;22.40;66.50;;;;;;5023371;28;20555;-64
2022/09/21 13:16:56;;;;;;;7.40;3.23;;;22.50;64.70;;;;;;5027862;28;20834;-64
2022/09/21 13:19:25;;;;;;;5.70;2.77;;;22.50;65.00;;;;;;5020859;28;20498;-64
2022/09/21 13:22:12;;;;;;;8.03;3.17;;;22.30;61.70;;;;;;5028253;28;20480;-64
2022/09/21 13:24:42;;;;;;;6.90;3.50;;;22.00;63.00;;;;;;5023083;28;20479;-63